< Typhoon 196316 1963 Season Typhoon 196318 >
Typhoon 196317 (JUDY)
General InformationTrack Information on Google Maps || Disaster Info.ResourceGoogle EarthGE AnimationAtom FeedGeoJSON
Detalied Best Track (Time Zone = UTC)
Year Month Day Hour Lat. Long. Pressure (hPa) Wind (kt) Class Image Chart
1963 9 27 06 8.0 154.3 1008 0 2 -- Chart
1963 9 27 12 8.2 153.8 1010 0 2 -- Chart
1963 9 27 18 8.4 153.3 1008 0 2 -- Chart
1963 9 28 00 8.5 153.0 1010 0 2 -- Chart
1963 9 28 06 8.7 152.6 1007 0 2 -- Chart
1963 9 28 12 8.9 152.1 1009 0 2 -- Chart
1963 9 28 18 9.0 152.0 1006 0 2 -- Chart
1963 9 29 00 10.0 151.0 1006 0 2 -- Chart
1963 9 29 06 11.0 150.2 1004 0 2 -- Chart
1963 9 29 12 12.3 149.5 1004 0 2 -- Chart
1963 9 29 18 13.6 149.0 1000 0 2 -- Chart
1963 9 30 00 15.0 148.7 998 0 2 -- Chart
1963 9 30 06 15.8 148.4 998 0 9 -- Chart
1963 9 30 12 16.4 148.3 990 0 9 -- Chart
1963 9 30 18 17.3 147.7 980 0 9 -- Chart
1963 10 1 00 18.3 146.9 980 0 9 -- Chart
1963 10 1 06 19.6 145.7 980 0 9 -- Chart
1963 10 1 12 20.6 144.8 980 0 9 -- Chart
1963 10 1 18 21.5 144.0 980 0 9 -- Chart
1963 10 2 00 22.8 143.2 940 0 9 -- Chart
1963 10 2 06 23.5 142.7 940 0 9 -- Chart
1963 10 2 12 24.6 142.4 920 0 9 -- Chart
1963 10 2 18 25.5 142.3 920 0 9 -- Chart
1963 10 3 00 26.5 142.6 920 0 9 -- Chart
1963 10 3 06 27.7 142.9 920 0 9 -- Chart
1963 10 3 12 28.8 143.4 920 0 9 -- Chart
1963 10 3 18 30.3 144.2 930 0 9 -- Chart
1963 10 4 00 31.4 145.2 940 0 9 -- Chart
1963 10 4 06 32.7 146.6 945 0 9 -- Chart
1963 10 4 12 34.0 148.2 955 0 9 -- Chart
1963 10 4 18 35.0 150.0 965 0 6 -- Chart
1963 10 5 00 36.2 152.0 980 0 6 -- Chart
1963 10 5 06 36.8 153.7 985 0 6 -- Chart
1963 10 5 12 37.5 155.5 990 0 6 -- Chart
1963 10 5 18 38.0 157.4 994 0 6 -- Chart
1963 10 6 00 38.5 159.0 1000 0 6 -- Chart
1963 10 6 06 39.5 160.5 1002 0 6 -- Chart
1963 10 6 12 40.3 161.6 1004 0 6 -- Chart
1963 10 6 18 41.3 162.4 1004 0 6 -- Chart
1963 10 7 00 42.1 163.3 1006 0 6 -- Chart
1963 10 7 06 43.1 164.1 1012 0 6 -- Chart
1963 10 7 12 44.1 164.6 1014 0 6 -- Chart
1963 10 7 18 45.0 165.1 1014 0 6 -- Chart
1963 10 8 00 46.0 166.0 1014 0 6 -- Chart
1963 10 8 06 47.0 167.0 1014 0 6 -- Chart
1963 10 8 12 48.0 168.0 1014 0 6 -- Chart
1963 10 8 18 49.2 169.0 1014 0 6 -- Chart
1963 10 9 00 50.6 170.9 1008 0 6 -- Chart
1963 10 9 06 52.0 173.0 1000 0 6 -- Chart
1963 10 9 12 53.0 175.5 998 0 6 -- Chart
1963 10 9 18 53.6 178.1 996 0 6 -- Chart
1963 10 10 00 54.1 180.7 996 0 6 -- Chart
Japan Meteorological Agency Best Track Data | Correction Date : 1991-07-16
< Typhoon 196316 1963 Season Typhoon 196318 >

Help